createdAt,value
2018-01-19T00:00:52.093Z,985.2877
2018-01-19T00:01:52.397Z,985.2526
2018-01-19T00:02:52.042Z,985.2578
2018-01-19T00:03:52.048Z,985.2578
2018-01-19T00:04:52.047Z,985.2631
2018-01-19T00:05:52.047Z,985.2818
2018-01-19T00:06:52.046Z,985.2092
2018-01-19T00:07:52.089Z,985.2413
2018-01-19T00:08:52.060Z,985.2279
2018-01-19T00:09:52.044Z,985.2092
2018-01-19T00:10:52.047Z,985.1418
2018-01-19T00:11:52.045Z,985.207
2018-01-19T00:12:52.047Z,985.1935
2018-01-19T00:13:52.177Z,985.1613
2018-01-19T00:14:52.054Z,985.1613
2018-01-19T00:15:52.055Z,985.1962
2018-01-19T00:16:52.062Z,985.1288
2018-01-19T00:17:52.058Z,985.1588
2018-01-19T00:18:52.062Z,985.1693
2018-01-19T00:19:52.219Z,985.1693
2018-01-19T00:20:52.060Z,985.1747
2018-01-19T00:21:52.064Z,985.1962
2018-01-19T00:22:52.059Z,985.1827
2018-01-19T00:23:52.060Z,985.2396
2018-01-19T00:24:52.060Z,985.2096
2018-01-19T00:25:52.420Z,985.2635
2018-01-19T00:26:52.062Z,985.1962
2018-01-19T00:27:52.073Z,985.2018
2018-01-19T00:28:52.067Z,985.3121
2018-01-19T00:29:52.064Z,985.269
2018-01-19T00:30:52.068Z,985.2905
2018-01-19T00:31:52.108Z,985.2877
2018-01-19T00:32:52.069Z,985.2743
2018-01-19T00:33:52.075Z,985.3147
2018-01-19T00:34:52.067Z,985.296
2018-01-19T00:35:52.067Z,985.3282
2018-01-19T00:36:52.067Z,985.3199
2018-01-19T00:37:52.518Z,985.3469
2018-01-19T00:38:52.071Z,985.406
2018-01-19T00:39:52.078Z,985.3791
2018-01-19T00:40:52.074Z,985.3326
2018-01-19T00:41:52.070Z,985.5002
2018-01-19T00:42:52.194Z,985.4269
2018-01-19T00:43:52.206Z,985.4942
2018-01-19T00:44:52.078Z,985.4991
2018-01-19T00:45:52.077Z,985.5294
2018-01-19T00:46:52.074Z,985.5698
2018-01-19T00:47:52.076Z,985.548
2018-01-19T00:48:52.082Z,985.548
2018-01-19T00:49:52.118Z,985.4856
2018-01-19T00:50:52.084Z,985.4807
2018-01-19T00:51:52.081Z,985.4838
2018-01-19T00:52:52.093Z,985.4673
2018-01-19T00:53:52.085Z,985.4486
2018-01-19T00:54:52.142Z,985.4838
2018-01-19T00:55:52.124Z,985.489
2018-01-19T00:56:52.090Z,985.5377
2018-01-19T00:57:52.090Z,985.5212
2018-01-19T00:58:52.086Z,985.5541
2018-01-19T00:59:52.090Z,985.5915
2018-01-19T01:00:52.089Z,985.5024
2018-01-19T01:01:52.238Z,985.5377
2018-01-19T01:02:52.092Z,985.5698
2018-01-19T01:03:52.097Z,985.6049
2018-01-19T01:04:52.097Z,985.6102
2018-01-19T01:05:52.089Z,985.6154
2018-01-19T01:06:52.094Z,985.6019
2018-01-19T01:07:52.144Z,985.6423
2018-01-19T01:08:52.106Z,985.6154
2018-01-19T01:09:52.101Z,985.6154
2018-01-19T01:10:52.093Z,985.5967
2018-01-19T01:11:52.095Z,985.6288
2018-01-19T01:12:52.106Z,985.6877
2018-01-19T01:13:52.254Z,985.6641
2018-01-19T01:14:52.095Z,985.6588
2018-01-19T01:15:52.146Z,985.7146
2018-01-19T01:16:52.098Z,985.7603
2018-01-19T01:17:52.099Z,985.7603
2018-01-19T01:18:52.105Z,985.7654
2018-01-19T01:19:52.548Z,985.8006
2018-01-19T01:20:52.106Z,985.8276
2018-01-19T01:21:52.107Z,985.8544
2018-01-19T01:22:52.109Z,985.8193
2018-01-19T01:23:52.108Z,985.8784
2018-01-19T01:24:52.107Z,985.8432
2018-01-19T01:25:52.138Z,985.811
2018-01-19T01:26:52.108Z,985.8381
2018-01-19T01:27:52.106Z,985.8245
2018-01-19T01:28:52.106Z,985.8432
2018-01-19T01:29:52.111Z,985.8837
2018-01-19T01:30:52.124Z,985.9023
2018-01-19T01:31:52.595Z,985.8671
2018-01-19T01:32:52.120Z,985.8806
2018-01-19T01:33:52.117Z,985.8889
2018-01-19T01:34:52.113Z,985.913
2018-01-19T01:35:52.128Z,985.9023
2018-01-19T01:36:52.120Z,985.9427
2018-01-19T01:37:52.477Z,985.9023
2018-01-19T01:38:52.124Z,985.9101
2018-01-19T01:39:52.172Z,985.913
2018-01-19T01:40:52.123Z,985.983
2018-01-19T01:41:52.122Z,985.9534
2018-01-19T01:42:52.124Z,986.0073
2018-01-19T01:43:52.162Z,986.0312
2018-01-19T01:44:52.125Z,986.0447
2018-01-19T01:45:52.121Z,986.0095
2018-01-19T01:46:52.131Z,985.9908
2018-01-19T01:47:52.125Z,986.0208
2018-01-19T01:48:52.133Z,986.0612
2018-01-19T01:49:52.488Z,986.0208
2018-01-19T01:50:52.124Z,986.0126
2018-01-19T01:51:52.129Z,986.0447
2018-01-19T01:52:52.126Z,986.0043
2018-01-19T01:53:52.135Z,986.0208
2018-01-19T01:54:52.131Z,986.026
2018-01-19T01:55:52.183Z,985.9774
2018-01-19T01:56:52.131Z,986.0343
2018-01-19T01:57:52.128Z,985.934
2018-01-19T01:58:52.136Z,985.937
2018-01-19T01:59:52.139Z,985.9639
2018-01-19T02:00:52.134Z,985.9587
2018-01-19T02:01:52.598Z,985.9422
2018-01-19T02:02:52.141Z,986.0012
2018-01-19T02:03:52.190Z,985.9661
2018-01-19T02:04:52.141Z,986.0065
2018-01-19T02:05:52.157Z,986.0447
2018-01-19T02:06:52.143Z,985.9878
2018-01-19T02:07:52.175Z,985.9743
2018-01-19T02:08:52.144Z,985.9878
2018-01-19T02:09:52.144Z,985.9908
2018-01-19T02:10:52.140Z,985.9691
2018-01-19T02:11:52.139Z,985.9826
2018-01-19T02:12:52.159Z,985.9661
2018-01-19T02:13:52.204Z,985.9878
2018-01-19T02:14:52.150Z,985.9796
2018-01-19T02:15:52.144Z,986.0231
2018-01-19T02:16:52.146Z,986.0043
2018-01-19T02:17:52.153Z,986.0178
2018-01-19T02:18:52.147Z,986.0365
2018-01-19T02:19:52.503Z,986.0582
2018-01-19T02:20:52.153Z,986.0012
2018-01-19T02:21:52.150Z,986.0469
2018-01-19T02:22:52.152Z,985.9631
2018-01-19T02:23:52.162Z,985.9982
2018-01-19T02:24:52.159Z,985.9847
2018-01-19T02:25:52.198Z,986.0065
2018-01-19T02:26:52.150Z,985.9713
2018-01-19T02:27:52.163Z,985.9766
2018-01-19T02:28:52.216Z,986.0251
2018-01-19T02:29:52.157Z,985.9362
2018-01-19T02:30:52.165Z,986.0304
2018-01-19T02:31:52.316Z,986.0199
2018-01-19T02:32:52.158Z,985.9982
2018-01-19T02:33:52.165Z,985.9631
2018-01-19T02:34:52.160Z,985.9766
2018-01-19T02:35:52.166Z,986.0656
2018-01-19T02:36:52.171Z,986.0251
2018-01-19T02:37:52.197Z,986.0656
2018-01-19T02:38:52.160Z,986.0626
2018-01-19T02:39:52.177Z,986.0656
2018-01-19T02:40:52.167Z,986.0251
2018-01-19T02:41:52.169Z,986.079
2018-01-19T02:42:52.174Z,986.079
2018-01-19T02:43:52.197Z,986.1599
2018-01-19T02:44:52.177Z,986.0521
2018-01-19T02:45:52.174Z,986.1329
2018-01-19T02:46:52.174Z,986.0709
2018-01-19T02:47:52.175Z,986.0574
2018-01-19T02:48:52.180Z,986.168
2018-01-19T02:49:52.212Z,986.1247
2018-01-19T02:50:52.175Z,986.1111
2018-01-19T02:51:52.184Z,986.0626
2018-01-19T02:52:52.177Z,986.1329
2018-01-19T02:53:52.177Z,986.1194
2018-01-19T02:54:52.183Z,986.1247
2018-01-19T02:55:52.178Z,986.0387
2018-01-19T02:56:52.186Z,986.0656
2018-01-19T02:57:52.184Z,986.0739
2018-01-19T02:58:52.188Z,986.1202
2018-01-19T02:59:52.178Z,986.1768
2018-01-19T03:00:52.217Z,986.1582
2018-01-19T03:01:52.188Z,986.1477
2018-01-19T03:02:52.182Z,986.1343
2018-01-19T03:03:52.188Z,986.1777
2018-01-19T03:04:52.183Z,986.1736
2018-01-19T03:05:52.190Z,986.1683
2018-01-19T03:06:52.520Z,986.1715
2018-01-19T03:07:52.184Z,986.1771
2018-01-19T03:08:52.189Z,986.2319
2018-01-19T03:09:52.191Z,986.2162
2018-01-19T03:10:52.190Z,986.2109
2018-01-19T03:11:52.200Z,986.2274
2018-01-19T03:12:52.236Z,986.2192
2018-01-19T03:13:52.194Z,986.2679
2018-01-19T03:14:52.196Z,986.241
2018-01-19T03:15:52.192Z,986.2679
2018-01-19T03:16:52.199Z,986.2813
2018-01-19T03:17:52.344Z,986.311
2018-01-19T03:18:52.310Z,986.2813
2018-01-19T03:19:52.264Z,986.3756
2018-01-19T03:20:52.200Z,986.3701
2018-01-19T03:21:52.200Z,986.3431
2018-01-19T03:22:52.219Z,986.373
2018-01-19T03:23:52.202Z,986.397
2018-01-19T03:24:52.581Z,986.314
2018-01-19T03:25:52.209Z,986.3679
2018-01-19T03:26:52.212Z,986.3462
2018-01-19T03:27:52.210Z,986.3896
2018-01-19T03:28:52.206Z,986.4009
2018-01-19T03:29:52.213Z,986.4009
2018-01-19T03:30:52.246Z,986.3635
2018-01-19T03:31:52.217Z,986.4039
2018-01-19T03:32:52.201Z,986.4039
2018-01-19T03:33:52.211Z,986.4204
2018-01-19T03:34:52.212Z,986.4286
2018-01-19T03:35:52.208Z,986.4338
2018-01-19T03:36:52.618Z,986.4369
2018-01-19T03:37:52.219Z,986.4286
2018-01-19T03:38:52.212Z,986.4152
2018-01-19T03:39:52.210Z,986.4369
2018-01-19T03:40:52.215Z,986.4286
2018-01-19T03:41:52.217Z,986.4182
2018-01-19T03:42:52.600Z,986.4882
2018-01-19T03:43:52.214Z,986.5099
2018-01-19T03:44:52.218Z,986.4396
2018-01-19T03:45:52.225Z,986.4965
2018-01-19T03:46:52.218Z,986.4561
2018-01-19T03:47:52.218Z,986.5048
2018-01-19T03:48:52.620Z,986.516
2018-01-19T03:49:52.225Z,986.4973
2018-01-19T03:50:52.219Z,986.5295
2018-01-19T03:51:52.224Z,986.516
2018-01-19T03:52:52.230Z,986.5377
2018-01-19T03:53:52.227Z,986.549
2018-01-19T03:54:52.257Z,986.6082
2018-01-19T03:55:52.225Z,986.6329
2018-01-19T03:56:52.223Z,986.5812
2018-01-19T03:57:52.251Z,986.6867
2018-01-19T03:58:52.237Z,986.692
2018-01-19T03:59:52.233Z,986.695
2018-01-19T04:00:52.266Z,986.668
2018-01-19T04:01:52.238Z,986.6733
2018-01-19T04:02:52.272Z,986.6216
2018-01-19T04:03:52.236Z,986.6651
2018-01-19T04:04:52.237Z,986.689
2018-01-19T04:05:52.245Z,986.7429
2018-01-19T04:06:52.268Z,986.6434
2018-01-19T04:07:52.234Z,986.7241
2018-01-19T04:08:52.243Z,986.7076
2018-01-19T04:09:52.243Z,986.7046
2018-01-19T04:10:52.234Z,986.7502
2018-01-19T04:11:52.233Z,986.718
2018-01-19T04:12:52.264Z,986.7316
2018-01-19T04:13:52.237Z,986.7234
2018-01-19T04:14:52.242Z,986.7555
2018-01-19T04:15:52.237Z,986.7368
2018-01-19T04:16:52.239Z,986.7637
2018-01-19T04:17:52.246Z,986.7637
2018-01-19T04:18:52.323Z,986.7958
2018-01-19T04:19:52.243Z,986.7958
2018-01-19T04:20:52.247Z,986.8146
2018-01-19T04:21:52.248Z,986.8094
2018-01-19T04:22:52.249Z,986.8798
2018-01-19T04:23:52.247Z,986.9037
2018-01-19T04:24:52.275Z,986.8393
2018-01-19T04:25:52.252Z,986.9337
2018-01-19T04:26:52.254Z,986.9066
2018-01-19T04:27:52.256Z,986.9098
2018-01-19T04:28:52.252Z,986.9127
2018-01-19T04:29:52.247Z,986.9688
2018-01-19T04:30:52.368Z,987.001
2018-01-19T04:31:52.284Z,987.0093
2018-01-19T04:32:52.254Z,987.1223
2018-01-19T04:33:52.259Z,987.0736
2018-01-19T04:34:52.258Z,987.1252
2018-01-19T04:35:52.258Z,987.1171
2018-01-19T04:36:52.292Z,987.144
2018-01-19T04:37:52.264Z,987.1813
2018-01-19T04:38:52.257Z,987.2135
2018-01-19T04:39:52.264Z,987.224
2018-01-19T04:40:52.268Z,987.1835
2018-01-19T04:41:52.258Z,987.2074
2018-01-19T04:42:52.310Z,987.2131
2018-01-19T04:43:52.268Z,987.1509
2018-01-19T04:44:52.260Z,987.1882
2018-01-19T04:45:52.265Z,987.1343
2018-01-19T04:46:52.264Z,987.2017
2018-01-19T04:47:52.276Z,987.1643
2018-01-19T04:48:52.346Z,987.1665
2018-01-19T04:49:52.272Z,987.2121
2018-01-19T04:50:52.266Z,987.266
2018-01-19T04:51:52.272Z,987.2473
2018-01-19T04:52:52.272Z,987.2855
2018-01-19T04:53:52.270Z,987.2743
2018-01-19T04:54:52.301Z,987.2256
2018-01-19T04:55:52.283Z,987.3094
2018-01-19T04:56:52.272Z,987.2344
2018-01-19T04:57:52.269Z,987.3047
2018-01-19T04:58:52.270Z,987.2839
2018-01-19T04:59:52.286Z,987.3521
2018-01-19T05:00:52.310Z,987.3416
2018-01-19T05:01:52.285Z,987.3365
2018-01-19T05:02:52.284Z,987.3257
2018-01-19T05:03:52.281Z,987.3152
2018-01-19T05:04:52.278Z,987.3265
2018-01-19T05:05:52.282Z,987.3079
2018-01-19T05:06:52.364Z,987.2966
2018-01-19T05:07:52.280Z,987.3018
2018-01-19T05:08:52.287Z,987.3423
2018-01-19T05:09:52.290Z,987.361
2018-01-19T05:10:52.281Z,987.3984
2018-01-19T05:11:52.286Z,987.3904
2018-01-19T05:12:52.324Z,987.4247
2018-01-19T05:13:52.294Z,987.3752
2018-01-19T05:14:52.356Z,987.3287
2018-01-19T05:15:52.290Z,987.3529
2018-01-19T05:16:52.302Z,987.3851
2018-01-19T05:17:52.297Z,987.3603
2018-01-19T05:18:52.331Z,987.3386
2018-01-19T05:19:52.303Z,987.3438
2018-01-19T05:20:52.297Z,987.3408
2018-01-19T05:21:52.292Z,987.346
2018-01-19T05:22:52.293Z,987.3729
2018-01-19T05:23:52.293Z,987.3751
2018-01-19T05:24:52.327Z,987.3751
2018-01-19T05:25:52.295Z,987.3938
2018-01-19T05:26:52.301Z,987.4073
2018-01-19T05:27:52.296Z,987.3828
2018-01-19T05:28:52.305Z,987.4398
2018-01-19T05:29:52.301Z,987.4128
2018-01-19T05:30:52.354Z,987.4584
2018-01-19T05:31:52.356Z,987.4202
2018-01-19T05:32:52.306Z,987.4067
2018-01-19T05:33:52.355Z,987.4202
2018-01-19T05:34:52.305Z,987.4337
2018-01-19T05:35:52.314Z,987.3767
2018-01-19T05:36:52.338Z,987.4119
2018-01-19T05:37:52.323Z,987.355
2018-01-19T05:38:52.305Z,987.3984
2018-01-19T05:39:52.311Z,987.4141
2018-01-19T05:40:52.312Z,987.4006
2018-01-19T05:41:52.312Z,987.4327
2018-01-19T05:42:52.426Z,987.411
2018-01-19T05:43:52.306Z,987.4732
2018-01-19T05:44:52.310Z,987.3759
2018-01-19T05:45:52.310Z,987.4266
2018-01-19T05:46:52.316Z,987.3915
2018-01-19T05:47:52.316Z,987.3242
2018-01-19T05:48:52.723Z,987.3864
2018-01-19T05:49:52.317Z,987.4319
2018-01-19T05:50:52.374Z,987.4023
2018-01-19T05:51:52.314Z,987.4023
2018-01-19T05:52:52.317Z,987.4127
2018-01-19T05:53:52.317Z,987.4261
2018-01-19T05:54:52.354Z,987.4179
2018-01-19T05:55:52.321Z,987.4396
2018-01-19T05:56:52.320Z,987.507
2018-01-19T05:57:52.338Z,987.4935
2018-01-19T05:58:52.326Z,987.5309
2018-01-19T05:59:52.335Z,987.5526
2018-01-19T06:00:52.358Z,987.5731
2018-01-19T06:01:52.330Z,987.6085
2018-01-19T06:02:52.319Z,987.649
2018-01-19T06:03:52.320Z,987.6437
2018-01-19T06:04:52.331Z,987.6808
2018-01-19T06:05:52.332Z,987.6251
2018-01-19T06:06:52.834Z,987.6509
2018-01-19T06:07:52.325Z,987.6456
2018-01-19T06:08:52.334Z,987.6321
2018-01-19T06:09:52.336Z,987.6321
2018-01-19T06:10:52.339Z,987.6052
2018-01-19T06:11:52.335Z,987.6321
2018-01-19T06:12:52.717Z,987.6509
2018-01-19T06:13:52.336Z,987.7047
2018-01-19T06:14:52.336Z,987.6694
2018-01-19T06:15:52.347Z,987.6747
2018-01-19T06:16:52.348Z,987.7286
2018-01-19T06:17:52.333Z,987.7473
2018-01-19T06:18:52.474Z,987.7794
2018-01-19T06:19:52.342Z,987.7742
2018-01-19T06:20:52.343Z,987.8498
2018-01-19T06:21:52.337Z,987.8901
2018-01-19T06:22:52.344Z,987.8871
2018-01-19T06:23:52.347Z,987.8896
2018-01-19T06:24:52.393Z,987.9165
2018-01-19T06:25:52.350Z,987.9083
2018-01-19T06:26:52.348Z,987.9517
2018-01-19T06:27:52.342Z,988.0108
2018-01-19T06:28:52.349Z,987.986
2018-01-19T06:29:52.352Z,987.9673
2018-01-19T06:30:52.384Z,988.0026
2018-01-19T06:31:52.352Z,988.0751
2018-01-19T06:32:52.347Z,988.0668
2018-01-19T06:33:52.347Z,988.1207
2018-01-19T06:34:52.353Z,988.0803
2018-01-19T06:35:52.363Z,988.188
2018-01-19T06:36:52.351Z,988.1984
2018-01-19T06:37:52.352Z,988.1632
2018-01-19T06:38:52.360Z,988.1984
2018-01-19T06:39:52.367Z,988.2037
2018-01-19T06:40:52.357Z,988.2388
2018-01-19T06:41:52.389Z,988.2275
2018-01-19T06:42:52.370Z,988.2628
2018-01-19T06:43:52.354Z,988.2679
2018-01-19T06:44:52.362Z,988.2979
2018-01-19T06:45:52.360Z,988.27
2018-01-19T06:46:52.362Z,988.2545
2018-01-19T06:47:52.712Z,988.3083
2018-01-19T06:48:52.366Z,988.3621
2018-01-19T06:49:52.365Z,988.3456
2018-01-19T06:50:52.364Z,988.3429
2018-01-19T06:51:52.366Z,988.3398
2018-01-19T06:52:52.358Z,988.3967
2018-01-19T06:53:52.405Z,988.3832
2018-01-19T06:54:52.373Z,988.4288
2018-01-19T06:55:52.369Z,988.3533
2018-01-19T06:56:52.367Z,988.3563
2018-01-19T06:57:52.465Z,988.3937
2018-01-19T06:58:52.370Z,988.4071
2018-01-19T06:59:52.681Z,988.461
2018-01-19T07:00:52.374Z,988.4579
2018-01-19T07:01:52.368Z,988.4849
2018-01-19T07:02:52.375Z,988.5252
2018-01-19T07:03:52.377Z,988.5522
2018-01-19T07:04:52.374Z,988.5491
2018-01-19T07:05:52.420Z,988.5491
2018-01-19T07:06:52.386Z,988.5326
2018-01-19T07:07:52.379Z,988.4869
2018-01-19T07:08:52.378Z,988.5408
2018-01-19T07:09:52.382Z,988.5895
2018-01-19T07:10:52.387Z,988.5999
2018-01-19T07:11:52.837Z,988.6082
2018-01-19T07:12:52.379Z,988.6082
2018-01-19T07:13:52.378Z,988.5677
2018-01-19T07:14:52.382Z,988.6082
2018-01-19T07:15:52.377Z,988.6538
2018-01-19T07:16:52.387Z,988.6454
2018-01-19T07:17:52.429Z,988.6454
2018-01-19T07:18:52.515Z,988.6372
2018-01-19T07:19:52.393Z,988.6238
2018-01-19T07:20:52.388Z,988.6828
2018-01-19T07:21:52.385Z,988.6962
2018-01-19T07:22:52.384Z,988.7419
2018-01-19T07:23:52.442Z,988.8174
2018-01-19T07:24:52.391Z,988.7853
2018-01-19T07:25:52.394Z,988.7823
2018-01-19T07:26:52.384Z,988.7553
2018-01-19T07:27:52.391Z,988.7823
2018-01-19T07:28:52.395Z,988.7523
2018-01-19T07:29:52.756Z,988.8362
2018-01-19T07:30:52.399Z,988.8547
2018-01-19T07:31:52.444Z,988.8713
2018-01-19T07:32:52.393Z,988.8572
2018-01-19T07:33:52.457Z,988.887
2018-01-19T07:34:52.398Z,988.9272
2018-01-19T07:35:52.425Z,988.938
2018-01-19T07:36:52.393Z,989.0001
2018-01-19T07:37:52.411Z,988.9812
2018-01-19T07:38:52.403Z,989.062
2018-01-19T07:39:52.405Z,989.035
2018-01-19T07:40:52.406Z,989.0136
2018-01-19T07:41:52.463Z,989.0215
2018-01-19T07:42:52.406Z,989.0188
2018-01-19T07:43:52.409Z,989.0591
2018-01-19T07:44:52.404Z,989.0053
2018-01-19T07:45:52.405Z,989.0374
2018-01-19T07:46:52.412Z,989.0323
2018-01-19T07:47:52.790Z,989.0831
2018-01-19T07:48:52.402Z,989.0074
2018-01-19T07:49:52.405Z,989.0831
2018-01-19T07:50:52.409Z,989.0965
2018-01-19T07:51:52.410Z,989.1669
2018-01-19T07:52:52.414Z,989.1741
2018-01-19T07:53:52.878Z,989.1473
2018-01-19T07:54:52.415Z,989.1638
2018-01-19T07:55:52.417Z,989.2042
2018-01-19T07:56:52.418Z,989.1151
2018-01-19T07:57:52.408Z,989.2985
2018-01-19T07:58:52.419Z,989.2312
2018-01-19T07:59:52.447Z,989.2446
2018-01-19T08:00:52.414Z,989.2229
2018-01-19T08:01:52.414Z,989.2549
2018-01-19T08:02:52.416Z,989.2581
2018-01-19T08:03:52.418Z,989.2684
2018-01-19T08:04:52.434Z,989.3088
2018-01-19T08:05:52.560Z,989.2819
2018-01-19T08:06:52.435Z,989.2954
2018-01-19T08:07:52.437Z,989.3709
2018-01-19T08:08:52.431Z,989.3813
2018-01-19T08:09:52.554Z,989.4082
2018-01-19T08:10:52.436Z,989.4217
2018-01-19T08:11:52.551Z,989.3948
2018-01-19T08:12:52.430Z,989.5025
2018-01-19T08:13:52.426Z,989.4621
2018-01-19T08:14:52.431Z,989.4942
2018-01-19T08:15:52.427Z,989.5584
2018-01-19T08:16:52.427Z,989.4942
2018-01-19T08:17:52.822Z,989.5129
2018-01-19T08:18:52.444Z,989.5803
2018-01-19T08:19:52.440Z,989.5615
2018-01-19T08:20:52.438Z,989.6122
2018-01-19T08:21:52.431Z,989.634
2018-01-19T08:22:52.433Z,989.5988
2018-01-19T08:23:52.876Z,989.6475
2018-01-19T08:24:52.447Z,989.6445
2018-01-19T08:25:52.484Z,989.663
2018-01-19T08:26:52.434Z,989.6899
2018-01-19T08:27:52.440Z,989.717
2018-01-19T08:28:52.439Z,989.7034
2018-01-19T08:29:52.489Z,989.7925
2018-01-19T08:30:52.441Z,989.717
2018-01-19T08:31:52.442Z,989.7221
2018-01-19T08:32:52.450Z,989.7894
2018-01-19T08:33:52.441Z,989.7407
2018-01-19T08:34:52.510Z,989.7894
2018-01-19T08:35:52.452Z,989.7894
2018-01-19T08:36:52.447Z,989.7977
2018-01-19T08:37:52.452Z,989.8381
2018-01-19T08:38:52.445Z,989.7595
2018-01-19T08:39:52.446Z,989.8112
2018-01-19T08:40:52.483Z,989.7273
2018-01-19T08:41:52.458Z,989.7407
2018-01-19T08:42:52.450Z,989.7542
2018-01-19T08:43:52.448Z,989.7324
2018-01-19T08:44:52.457Z,989.687
2018-01-19T08:45:52.455Z,989.7676
2018-01-19T08:46:52.630Z,989.7997
2018-01-19T08:47:52.462Z,989.7595
2018-01-19T08:48:52.461Z,989.8671
2018-01-19T08:49:52.473Z,989.8619
2018-01-19T08:50:52.456Z,989.8323
2018-01-19T08:51:52.459Z,989.8022
2018-01-19T08:52:52.511Z,989.8105
2018-01-19T08:53:52.461Z,989.9316
2018-01-19T08:54:52.470Z,989.8778
2018-01-19T08:55:52.455Z,989.8965
2018-01-19T08:56:52.463Z,989.9316
2018-01-19T08:57:52.461Z,989.9202
2018-01-19T08:58:52.874Z,989.9585
2018-01-19T08:59:52.464Z,989.9285
2018-01-19T09:00:52.462Z,990.0176
2018-01-19T09:01:52.473Z,990.0497
2018-01-19T09:02:52.468Z,990.0042
2018-01-19T09:03:52.468Z,990.0125
2018-01-19T09:04:52.494Z,990.0528
2018-01-19T09:05:52.466Z,990.0341
2018-01-19T09:06:52.470Z,990.0446
2018-01-19T09:07:52.464Z,990.001
2018-01-19T09:08:52.468Z,990.001
2018-01-19T09:09:52.476Z,990.0227
2018-01-19T09:10:52.509Z,990.001
2018-01-19T09:11:52.471Z,990.0227
2018-01-19T09:12:52.699Z,990.0415
2018-01-19T09:13:52.473Z,990.028
2018-01-19T09:14:52.498Z,990.0518
2018-01-19T09:15:52.480Z,990.0601
2018-01-19T09:16:52.477Z,990.0549
2018-01-19T09:17:52.538Z,990.0787
2018-01-19T09:18:52.478Z,990.0415
2018-01-19T09:19:52.477Z,990.0922
2018-01-19T09:20:52.490Z,990.1057
2018-01-19T09:21:52.608Z,990.114
2018-01-19T09:22:52.487Z,990.1699
2018-01-19T09:23:52.484Z,990.1191
2018-01-19T09:24:52.481Z,990.1409
2018-01-19T09:25:52.494Z,990.2402
2018-01-19T09:26:52.492Z,990.1782
2018-01-19T09:27:52.617Z,990.2672
2018-01-19T09:28:52.483Z,990.1326
2018-01-19T09:29:52.492Z,990.2134
2018-01-19T09:30:52.493Z,990.2134
2018-01-19T09:31:52.491Z,990.2268
2018-01-19T09:32:52.502Z,990.2537
2018-01-19T09:33:52.527Z,990.3159
2018-01-19T09:34:52.488Z,990.3345
2018-01-19T09:35:52.494Z,990.291
2018-01-19T09:36:52.491Z,990.3448
2018-01-19T09:37:52.495Z,990.3583
2018-01-19T09:38:52.502Z,990.3853
2018-01-19T09:39:52.880Z,990.4204
2018-01-19T09:40:52.494Z,990.4794
2018-01-19T09:41:52.495Z,990.5012
2018-01-19T09:42:52.492Z,990.4929
2018-01-19T09:43:52.498Z,990.4743
2018-01-19T09:44:52.498Z,990.5251
2018-01-19T09:45:52.982Z,990.5251
2018-01-19T09:46:52.499Z,990.5117
2018-01-19T09:47:52.511Z,990.5468
2018-01-19T09:48:52.556Z,990.5117
2018-01-19T09:49:52.511Z,990.6058
2018-01-19T09:50:52.507Z,990.5737
2018-01-19T09:51:52.627Z,990.6462
2018-01-19T09:52:52.508Z,990.641
2018-01-19T09:53:52.513Z,990.6731
2018-01-19T09:54:52.504Z,990.6462
2018-01-19T09:55:52.508Z,990.6649
2018-01-19T09:56:52.502Z,990.7001
2018-01-19T09:57:52.552Z,990.6783
2018-01-19T09:58:52.508Z,990.7673
2018-01-19T09:59:52.510Z,990.7539
2018-01-19T10:00:52.514Z,990.756
2018-01-19T10:01:52.508Z,990.7643
2018-01-19T10:02:52.513Z,990.7726
2018-01-19T10:03:52.541Z,990.7643
2018-01-19T10:04:52.517Z,990.7425
2018-01-19T10:05:52.511Z,990.7912
2018-01-19T10:06:52.525Z,990.8046
2018-01-19T10:07:52.526Z,990.8015
2018-01-19T10:08:52.519Z,990.7932
2018-01-19T10:09:52.602Z,990.8471
2018-01-19T10:10:52.521Z,990.8015
2018-01-19T10:11:52.526Z,990.8066
2018-01-19T10:12:52.521Z,990.8471
2018-01-19T10:13:52.522Z,990.8443
2018-01-19T10:14:52.517Z,990.874
2018-01-19T10:15:52.972Z,990.8981
2018-01-19T10:16:52.525Z,990.8875
2018-01-19T10:17:52.521Z,990.8795
2018-01-19T10:18:52.582Z,990.8795
2018-01-19T10:19:52.528Z,990.8712
2018-01-19T10:20:52.534Z,990.8846
2018-01-19T10:21:52.561Z,990.925
2018-01-19T10:22:52.529Z,990.925
2018-01-19T10:23:52.527Z,990.8846
2018-01-19T10:24:52.524Z,990.9144
2018-01-19T10:25:52.530Z,990.9744
2018-01-19T10:26:52.539Z,990.8968
2018-01-19T10:27:52.668Z,991.0056
2018-01-19T10:28:52.533Z,990.9279
2018-01-19T10:29:52.535Z,990.9928
2018-01-19T10:30:52.539Z,990.9721
2018-01-19T10:31:52.537Z,990.9835
2018-01-19T10:32:52.659Z,990.9897
2018-01-19T10:33:52.535Z,990.9276
2018-01-19T10:34:52.542Z,990.9771
2018-01-19T10:35:52.536Z,990.9501
2018-01-19T10:36:52.542Z,990.9698
2018-01-19T10:37:52.547Z,990.9646
2018-01-19T10:38:52.625Z,990.9408
2018-01-19T10:39:52.549Z,990.9739
2018-01-19T10:40:52.546Z,990.9522
2018-01-19T10:41:52.548Z,990.985
2018-01-19T10:42:52.543Z,991.0016
2018-01-19T10:43:52.558Z,991.0078
2018-01-19T10:44:52.571Z,990.984
2018-01-19T10:45:52.554Z,991.0057
2018-01-19T10:46:52.548Z,991.0357
2018-01-19T10:47:52.549Z,991.0305
2018-01-19T10:48:52.562Z,990.9929
2018-01-19T10:49:52.583Z,991.0396
2018-01-19T10:50:52.581Z,990.9991
2018-01-19T10:51:52.545Z,990.9991
2018-01-19T10:52:52.559Z,991.0057
2018-01-19T10:53:52.561Z,991.0896
2018-01-19T10:54:52.555Z,991.0037
2018-01-19T10:55:52.558Z,991.074
2018-01-19T10:56:53.079Z,991.0337
2018-01-19T10:57:52.557Z,991.0717
2018-01-19T10:58:52.558Z,991.0882
2018-01-19T10:59:52.563Z,991.0831
2018-01-19T11:00:52.557Z,990.9919
2018-01-19T11:01:52.556Z,991.022
2018-01-19T11:02:52.589Z,991.0167
2018-01-19T11:03:52.555Z,991.0872
2018-01-19T11:04:52.567Z,991.1038
2018-01-19T11:05:52.563Z,991.0796
2018-01-19T11:06:52.568Z,991.034
2018-01-19T11:07:52.573Z,991.0018
2018-01-19T11:08:52.681Z,991.032
2018-01-19T11:09:52.566Z,990.9812
2018-01-19T11:10:52.590Z,990.976
2018-01-19T11:11:52.573Z,990.9199
2018-01-19T11:12:52.566Z,990.9604
2018-01-19T11:13:52.572Z,991.0577
2018-01-19T11:14:52.690Z,991.0443
2018-01-19T11:15:52.581Z,991.0771
2018-01-19T11:16:52.576Z,991.0419
2018-01-19T11:17:52.571Z,991.0584
2018-01-19T11:18:52.578Z,991.0771
2018-01-19T11:19:52.586Z,990.9911
2018-01-19T11:20:52.988Z,991.0399
2018-01-19T11:21:52.584Z,990.9694
2018-01-19T11:22:52.582Z,990.9673
2018-01-19T11:23:52.570Z,990.9973
2018-01-19T11:24:52.578Z,990.9548
2018-01-19T11:25:52.575Z,991.0222
2018-01-19T11:26:52.617Z,991.0087
2018-01-19T11:27:52.582Z,991.0626
2018-01-19T11:28:52.581Z,991.0304
2018-01-19T11:29:52.591Z,990.9984
2018-01-19T11:30:52.592Z,991.017
2018-01-19T11:31:52.590Z,991.0388
2018-01-19T11:32:53.010Z,991.0252
2018-01-19T11:33:52.590Z,990.9958
2018-01-19T11:34:52.604Z,991.0688
2018-01-19T11:35:52.586Z,991.0632
2018-01-19T11:36:52.583Z,991.0176
2018-01-19T11:37:52.585Z,991.0312
2018-01-19T11:38:52.634Z,991.0715
2018-01-19T11:39:52.588Z,991.0663
2018-01-19T11:40:52.587Z,991.0176
2018-01-19T11:41:52.588Z,990.9503
2018-01-19T11:42:52.581Z,991.0207
2018-01-19T11:43:52.587Z,990.9803
2018-01-19T11:44:52.631Z,990.9534
2018-01-19T11:45:52.597Z,990.9431
2018-01-19T11:46:52.597Z,990.9617